This is the latest recevied weather packets stored in our database for station/object LRBS. If no packets are shown the sender has not sent any weather packets the latest 10 day(s).
| Time | Temp. | Humidity | Pressure | Rain* | Wind** | Luminosity | Snow |
|---|---|---|---|---|---|---|---|
| 1788085994 | 30° C | 40% | 1018 hPa | - | - | - | - |
| 1788085095 | 28.89° C | 45% | 1018 hPa | - | - | - | - |
| 1788084195 | 28.89° C | 45% | 1018 hPa | - | - | - | - |
| 1788083295 | 27.78° C | 45% | 1018 hPa | - | - | - | - |
| 1788082394 | 27.78° C | 45% | 1018 hPa | - | - | - | - |
| 1788081494 | 27.22° C | 51% | 1018 hPa | - | - | - | - |
| 1788080616 | 27.22° C | 51% | 1018 hPa | - | - | - | - |
| 1788079694 | 26.11° C | 54% | 1018 hPa | - | - | - | - |
| 1788078801 | 26.11° C | 54% | 1018 hPa | - | - | - | - |
| 1788077894 | 27.22° C | 51% | 1018 hPa | - | - | - | - |
| 1788076994 | 27.22° C | 51% | 1018 hPa | - | - | - | - |
| 1788076094 | 23.89° C | 57% | 1018 hPa | - | - | - | - |
| 1788075225 | 23.89° C | 57% | 1018 hPa | - | - | - | - |
| 1788074294 | 22.78° C | 65% | 1018 hPa | - | - | - | - |
| 1788073394 | 22.78° C | 65% | 1018 hPa | - | - | - | - |
| 1788072494 | 21.11° C | 78% | 1018 hPa | - | - | - | - |
| 1788071594 | 21.11° C | 78% | 1018 hPa | - | - | - | - |
| 1788070694 | 21.11° C | 78% | 1018 hPa | - | - | - | - |
| 1788069794 | 21.11° C | 78% | 1018 hPa | - | - | - | - |
| 1788068894 | 20° C | 83% | 1018 hPa | - | - | - | - |
| 1788067994 | 20° C | 83% | 1018 hPa | - | - | - | - |
| 1788067094 | 18.89° C | 83% | 1018 hPa | - | - | - | - |
| 1788066194 | 18.89° C | 83% | 1018 hPa | - | - | - | - |
| 1788065294 | 18.89° C | 83% | 1017 hPa | - | - | - | - |
| 1788064394 | 18.89° C | 83% | 1017 hPa | - | - | - | - |
* Rain since midnight (hover to see other rain measurements)
** Current wind speed in m/s (hover to see current wind gust speed)